Terminal Aerodrome Forecast
Issued by NWS Wakefield, VA

Home | Current Version | Previous Version | Text Only | Print | Product List | Glossary On
Versions: 1 2 3 4 5 6 7 8 9 10 11 12 13 14 15 16 17 18 19
474
FTUS41 KAKQ 091925 AAA
TAFRIC
TAF AMD
KRIC 091925Z 0919/1018 30011KT P6SM VCSH BKN040
      TEMPO 0919/0921 5SM -SHRASN BKN025
     FM092300 28009KT P6SM OVC050=

USA.gov is the U.S. government's official web portal to all federal, state and local government web resources and services.